Time;durP1;ratioP1;P1;durP2;ratioP2;P2;SDS_P1;SDS_P2;PMS_P1;PMS_P2;Temp;Humidity;BMP_temperature;BMP_pressure;BME280_temperature;BME280_humidity;BME280_pressure;Samples;Min_cycle;Max_cycle;Signal;HPM_P1;HPM_P2
2022/03/21 00:02:22;;;;;;;12.38;7.97;;;20.10;48.90;;;;;;4880118;29;20072;-59
2022/03/21 00:04:48;;;;;;;12.70;8.50;;;20.10;48.90;;;;;;4879872;29;20107;-59
2022/03/21 00:07:13;;;;;;;12.27;8.27;;;20.10;48.90;;;;;;4880062;29;20499;-59
2022/03/21 00:09:39;;;;;;;11.55;8.55;;;20.10;48.90;;;;;;4880521;29;20120;-59
2022/03/21 00:12:05;;;;;;;10.00;7.53;;;20.10;48.80;;;;;;4879102;29;20141;-59
2022/03/21 00:14:30;;;;;;;10.20;7.63;;;20.10;48.90;;;;;;4880257;29;20553;-59
2022/03/21 00:16:57;;;;;;;11.10;8.20;;;20.10;48.90;;;;;;4880247;29;20049;-59
2022/03/21 00:19:23;;;;;;;11.65;7.57;;;20.10;48.90;;;;;;4878973;29;20064;-59
2022/03/21 00:21:48;;;;;;;11.02;7.78;;;20.00;48.80;;;;;;4880100;29;20045;-59
2022/03/21 00:24:14;;;;;;;11.75;8.05;;;20.10;48.90;;;;;;4879598;29;20485;-59
2022/03/21 00:26:40;;;;;;;11.05;7.60;;;20.00;48.70;;;;;;4879348;29;20056;-59
2022/03/21 00:29:06;;;;;;;11.02;7.68;;;20.00;48.80;;;;;;4880051;29;20064;-59
2022/03/21 00:31:31;;;;;;;10.15;7.30;;;20.00;48.80;;;;;;4878966;29;20053;-59
2022/03/21 00:33:57;;;;;;;10.02;7.45;;;20.00;48.80;;;;;;4880032;29;20051;-59
2022/03/21 00:36:22;;;;;;;10.25;7.43;;;20.00;48.80;;;;;;4879729;29;20128;-59
2022/03/21 00:38:48;;;;;;;10.75;7.40;;;20.00;48.80;;;;;;4878175;29;20045;-59
2022/03/21 00:41:13;;;;;;;11.57;7.55;;;20.00;48.70;;;;;;4879708;29;20053;-59
2022/03/21 00:43:39;;;;;;;10.80;7.60;;;20.00;48.80;;;;;;4879925;29;20128;-59
2022/03/21 00:46:04;;;;;;;9.63;6.78;;;20.00;48.70;;;;;;4877646;29;20045;-59
2022/03/21 00:48:30;;;;;;;9.10;6.95;;;20.00;48.70;;;;;;4879822;29;20609;-59
2022/03/21 00:50:56;;;;;;;9.88;7.07;;;19.90;48.70;;;;;;4879888;29;20059;-60
2022/03/21 00:53:21;;;;;;;10.43;7.32;;;19.90;48.70;;;;;;4878916;29;20049;-59
2022/03/21 00:55:48;;;;;;;10.75;7.05;;;19.90;48.70;;;;;;4879656;29;20049;-59
2022/03/21 00:58:13;;;;;;;9.30;6.22;;;19.90;48.70;;;;;;4879226;29;20052;-59
2022/03/21 01:00:39;;;;;;;9.35;6.53;;;19.90;48.70;;;;;;4878996;29;20041;-59
2022/03/21 01:03:04;;;;;;;9.40;6.82;;;19.90;48.70;;;;;;4879380;29;20041;-59
2022/03/21 01:05:30;;;;;;;10.63;7.07;;;19.90;48.70;;;;;;4879045;29;20055;-59
2022/03/21 01:07:56;;;;;;;9.43;6.47;;;19.90;48.60;;;;;;4878399;29;20037;-59
2022/03/21 01:10:22;;;;;;;9.40;6.28;;;19.90;48.70;;;;;;4878551;29;20461;-59
2022/03/21 01:12:48;;;;;;;9.38;6.50;;;19.90;49.40;;;;;;4879259;29;20068;-59
2022/03/21 01:15:14;;;;;;;9.73;6.40;;;19.90;48.70;;;;;;4878377;29;20041;-59
2022/03/21 01:17:42;;;;;;;9.25;6.53;;;19.80;48.70;;;;;;4879255;29;20056;-59
2022/03/21 01:20:08;;;;;;;11.13;6.50;;;19.90;48.70;;;;;;4879472;29;20055;-59
2022/03/21 01:22:33;;;;;;;8.95;6.22;;;19.80;48.60;;;;;;4877933;29;20390;-59
2022/03/21 01:24:59;;;;;;;8.27;6.25;;;19.90;48.70;;;;;;4879223;29;20097;-59
2022/03/21 01:27:24;;;;;;;7.75;5.90;;;19.80;48.60;;;;;;4879078;29;20049;-59
2022/03/21 01:29:50;;;;;;;8.70;6.43;;;19.80;48.60;;;;;;4878530;29;20045;-59
2022/03/21 01:32:15;;;;;;;7.82;5.95;;;19.80;48.70;;;;;;4878883;29;20400;-59
2022/03/21 01:34:41;;;;;;;9.65;5.82;;;19.80;48.60;;;;;;4878590;29;20132;-59
2022/03/21 01:37:06;;;;;;;8.40;5.90;;;19.80;48.70;;;;;;4879169;29;20087;-59
2022/03/21 01:39:32;;;;;;;8.27;6.13;;;19.80;48.60;;;;;;4878833;29;20049;-59
2022/03/21 01:41:58;;;;;;;7.93;6.00;;;19.80;48.70;;;;;;4878356;29;20041;-59
2022/03/21 01:44:23;;;;;;;8.65;6.03;;;19.80;48.60;;;;;;4878828;29;20049;-59
2022/03/21 01:46:49;;;;;;;7.55;5.55;;;19.70;48.50;;;;;;4878967;29;20129;-59
2022/03/21 01:49:14;;;;;;;7.40;5.57;;;19.70;48.60;;;;;;4878162;29;20493;-59
2022/03/21 01:51:41;;;;;;;9.05;5.90;;;19.70;48.60;;;;;;4879170;29;20045;-59
2022/03/21 01:56:50;;;;;;;8.25;5.68;;;19.80;48.70;;;;;;4878311;29;20073;-59
2022/03/21 01:59:16;;;;;;;6.43;5.20;;;19.70;48.60;;;;;;4877246;29;20053;-59
2022/03/21 02:01:42;;;;;;;7.43;5.47;;;19.70;48.60;;;;;;4878629;29;20049;-60
2022/03/21 02:04:07;;;;;;;7.32;5.35;;;19.70;48.60;;;;;;4878410;29;20120;-59
2022/03/21 02:06:33;;;;;;;8.40;5.80;;;19.70;48.60;;;;;;4878337;29;20062;-59
2022/03/21 02:09:00;;;;;;;7.07;5.38;;;19.70;48.60;;;;;;4878932;29;20473;-59
2022/03/21 02:11:26;;;;;;;6.93;5.22;;;19.70;48.60;;;;;;4877755;29;20153;-59
2022/03/21 02:13:56;;;;;;;8.32;5.20;;;19.70;48.60;;;;;;4878581;29;20064;-59
2022/03/21 02:16:23;;;;;;;7.15;5.10;;;19.70;48.60;;;;;;4878561;29;20048;-59
2022/03/21 02:18:48;;;;;;;7.10;5.38;;;19.70;48.50;;;;;;4878043;29;20041;-59
2022/03/21 02:21:24;;;;;;;7.72;4.93;;;19.70;48.50;;;;;;4881585;29;20049;-59
2022/03/21 02:23:56;;;;;;;7.43;4.80;;;19.70;48.50;;;;;;4881320;29;20063;-59
2022/03/21 02:26:23;;;;;;;8.00;4.72;;;19.70;48.50;;;;;;4882221;29;20049;-59
2022/03/21 02:28:48;;;;;;;8.07;5.20;;;19.70;48.40;;;;;;4881228;29;20051;-59
2022/03/21 02:31:15;;;;;;;8.10;5.50;;;19.70;48.40;;;;;;4881198;29;20152;-59
2022/03/21 02:33:41;;;;;;;7.10;4.82;;;19.70;48.40;;;;;;4881988;29;20047;-59
2022/03/21 02:36:06;;;;;;;8.50;5.32;;;19.70;48.40;;;;;;4880910;29;20048;-59
2022/03/21 02:38:32;;;;;;;6.88;4.85;;;19.70;48.40;;;;;;4879746;29;20077;-59
2022/03/21 02:40:57;;;;;;;6.90;4.72;;;19.70;48.30;;;;;;4865630;29;20045;-59
2022/03/21 02:43:23;;;;;;;7.80;4.75;;;19.80;48.40;;;;;;4881493;29;20128;-59
2022/03/21 02:45:49;;;;;;;7.47;4.82;;;19.80;48.40;;;;;;4881134;29;20489;-59
2022/03/21 02:48:15;;;;;;;7.53;5.53;;;19.70;48.30;;;;;;4881169;29;20041;-59
2022/03/21 02:51:01;;;;;;;6.90;4.60;;;19.80;48.30;;;;;;4882043;29;20063;-59
2022/03/21 02:53:30;;;;;;;6.32;4.78;;;19.80;48.30;;;;;;4880871;29;20052;-60
2022/03/21 02:55:55;;;;;;;6.72;4.35;;;19.80;48.30;;;;;;4881000;29;20049;-59
2022/03/21 02:58:21;;;;;;;5.50;3.92;;;19.80;48.30;;;;;;4880798;29;20449;-59
2022/03/21 03:00:46;;;;;;;6.50;4.55;;;19.80;48.30;;;;;;4875761;29;20434;-59
2022/03/21 03:03:12;;;;;;;5.80;4.47;;;19.80;48.30;;;;;;4861819;29;20046;-59
2022/03/21 03:05:37;;;;;;;6.55;3.92;;;19.80;48.30;;;;;;4862535;29;20053;-59
2022/03/21 03:08:03;;;;;;;6.68;4.85;;;19.80;48.30;;;;;;4861771;29;20577;-59
2022/03/21 03:10:29;;;;;;;5.57;4.00;;;19.80;48.30;;;;;;4862472;29;20170;-59
2022/03/21 03:12:55;;;;;;;6.85;4.30;;;19.80;48.30;;;;;;4862672;29;20065;-59
2022/03/21 03:15:20;;;;;;;6.40;4.32;;;19.90;48.30;;;;;;4861804;29;20080;-59
2022/03/21 03:17:46;;;;;;;7.38;4.55;;;19.90;48.30;;;;;;4862797;29;20405;-59
2022/03/21 03:20:12;;;;;;;8.32;4.78;;;19.90;48.30;;;;;;4862007;29;20437;-59
2022/03/21 03:22:38;;;;;;;6.75;4.18;;;19.90;48.30;;;;;;4861815;29;20052;-59
2022/03/21 03:25:04;;;;;;;7.05;4.40;;;19.90;48.30;;;;;;4861469;29;20056;-59
2022/03/21 03:27:31;;;;;;;6.10;3.80;;;19.90;48.30;;;;;;4861401;29;20775;-59
2022/03/21 03:30:01;;;;;;;6.63;4.38;;;19.90;48.30;;;;;;4862500;29;20133;-59
2022/03/21 03:32:27;;;;;;;5.88;4.10;;;20.00;48.30;;;;;;4861267;29;20141;-59
2022/03/21 03:34:52;;;;;;;5.70;3.90;;;20.00;48.30;;;;;;4861789;29;20401;-59
2022/03/21 03:37:19;;;;;;;6.78;4.53;;;20.00;48.30;;;;;;4861038;29;20494;-59
2022/03/21 03:39:44;;;;;;;5.78;3.67;;;20.00;48.30;;;;;;4862580;29;20082;-59
2022/03/21 03:42:10;;;;;;;8.52;4.38;;;20.00;48.30;;;;;;4860474;29;20053;-59
2022/03/21 03:44:36;;;;;;;7.05;4.00;;;20.00;48.30;;;;;;4862121;29;20513;-59
2022/03/21 03:47:02;;;;;;;6.20;3.70;;;20.00;48.30;;;;;;4862397;29;20090;-59
2022/03/21 03:49:28;;;;;;;6.63;4.03;;;20.00;48.30;;;;;;4861140;29;20140;-59
2022/03/21 03:51:53;;;;;;;7.10;4.32;;;20.00;48.20;;;;;;4862218;29;20045;-59
2022/03/21 03:54:19;;;;;;;6.65;3.78;;;20.00;48.30;;;;;;4861986;29;20529;-59
2022/03/21 03:56:44;;;;;;;6.53;3.95;;;20.00;48.20;;;;;;4861111;29;20506;-59
2022/03/21 03:59:10;;;;;;;6.80;4.05;;;20.10;49.00;;;;;;4862090;29;20136;-59
2022/03/21 04:01:38;;;;;;;5.43;3.95;;;20.10;48.30;;;;;;4861877;29;20386;-59
2022/03/21 04:04:04;;;;;;;5.45;3.63;;;20.10;48.30;;;;;;4861348;29;20049;-59
2022/03/21 04:06:29;;;;;;;5.00;3.45;;;20.10;48.30;;;;;;4861709;29;20052;-59
2022/03/21 04:08:55;;;;;;;5.68;3.80;;;20.10;48.30;;;;;;4861887;29;20049;-59
2022/03/21 04:11:20;;;;;;;5.40;3.92;;;20.10;48.30;;;;;;4860511;29;20498;-59
2022/03/21 04:13:49;;;;;;;5.75;3.40;;;20.10;48.30;;;;;;4861381;29;20065;-59
2022/03/21 04:16:14;;;;;;;6.60;3.28;;;20.10;48.30;;;;;;4861242;29;20516;-59
2022/03/21 04:18:40;;;;;;;5.97;3.80;;;20.20;48.30;;;;;;4860743;29;20136;-59
2022/03/21 04:21:05;;;;;;;5.43;3.72;;;20.10;48.20;;;;;;4861882;29;20052;-59
2022/03/21 04:23:31;;;;;;;4.63;3.08;;;20.20;48.20;;;;;;4860784;29;20072;-59
2022/03/21 04:25:57;;;;;;;5.68;3.45;;;20.20;48.30;;;;;;4861425;29;20406;-59
2022/03/21 04:28:22;;;;;;;4.63;3.30;;;20.20;48.20;;;;;;4861400;29;20788;-59
2022/03/21 04:30:48;;;;;;;6.82;3.30;;;20.20;48.20;;;;;;4860537;29;20860;-59
2022/03/21 04:33:13;;;;;;;6.32;3.80;;;20.20;48.20;;;;;;4861307;29;20482;-59
2022/03/21 04:35:39;;;;;;;6.00;3.47;;;20.20;48.20;;;;;;4860140;29;20539;-59
2022/03/21 04:38:12;;;;;;;5.90;3.40;;;20.20;48.10;;;;;;4860476;29;20049;-59
2022/03/21 04:40:42;;;;;;;5.72;3.65;;;20.20;48.20;;;;;;4861421;29;20078;-59
2022/03/21 04:43:08;;;;;;;4.68;3.20;;;20.20;48.10;;;;;;4861263;29;20053;-59
2022/03/21 04:45:34;;;;;;;4.88;3.33;;;20.20;48.20;;;;;;4860362;29;20129;-58
2022/03/21 04:48:00;;;;;;;4.82;3.20;;;20.20;48.10;;;;;;4860955;29;20115;-58
2022/03/21 04:50:25;;;;;;;5.60;3.38;;;20.20;48.10;;;;;;4860778;29;20061;-59
2022/03/21 04:52:51;;;;;;;5.20;3.13;;;20.20;48.10;;;;;;4860215;29;20041;-59
2022/03/21 04:55:16;;;;;;;5.03;3.17;;;20.20;48.00;;;;;;4860891;29;20122;-59
2022/03/21 04:57:42;;;;;;;4.53;3.38;;;20.20;48.00;;;;;;4861036;29;20494;-59
2022/03/21 05:00:08;;;;;;;4.15;2.97;;;20.20;48.70;;;;;;4860426;29;20053;-59
2022/03/21 05:02:33;;;;;;;4.93;3.30;;;20.20;48.00;;;;;;4877640;29;20044;-59
2022/03/21 05:04:59;;;;;;;5.00;3.10;;;20.30;48.10;;;;;;4878875;29;20045;-59
2022/03/21 05:07:25;;;;;;;5.00;3.15;;;20.30;48.10;;;;;;4877519;29;20044;-58
2022/03/21 05:09:51;;;;;;;5.30;3.10;;;20.30;48.00;;;;;;4879555;29;20085;-59
2022/03/21 05:12:16;;;;;;;5.10;3.40;;;20.30;48.00;;;;;;4878909;29;20092;-59
2022/03/21 05:14:42;;;;;;;5.80;3.22;;;20.30;48.00;;;;;;4878539;29;20450;-59
2022/03/21 05:17:09;;;;;;;4.55;2.92;;;20.30;48.70;;;;;;4879474;29;20497;-59
2022/03/21 05:19:36;;;;;;;4.70;2.72;;;20.30;48.00;;;;;;4878963;29;20067;-59
2022/03/21 05:22:03;;;;;;;4.95;3.03;;;20.30;48.00;;;;;;4878587;29;20080;-59
2022/03/21 05:32:41;;;;;;;5.40;3.60;;;20.30;47.90;;;;;;4879176;29;20053;-59
2022/03/21 05:37:51;;;;;;;4.57;2.88;;;20.30;47.90;;;;;;4879015;29;20057;-59
2022/03/21 05:40:31;;;;;;;4.70;2.97;;;20.30;47.90;;;;;;4878714;29;20057;-59
2022/03/21 05:42:57;;;;;;;4.85;3.13;;;20.30;47.90;;;;;;4878171;29;20416;-59
2022/03/21 05:45:23;;;;;;;3.63;2.80;;;20.30;47.90;;;;;;4878727;29;20041;-59
2022/03/21 05:50:35;;;;;;;4.28;2.90;;;20.30;47.80;;;;;;4879298;29;20481;-59
2022/03/21 05:53:02;;;;;;;4.57;2.63;;;20.30;47.70;;;;;;4878813;29;20052;-59
2022/03/21 05:55:29;;;;;;;4.07;2.70;;;20.30;47.70;;;;;;4880158;29;20049;-59
2022/03/21 05:57:55;;;;;;;5.28;2.90;;;20.30;47.80;;;;;;4881355;29;20053;-59
2022/03/21 06:00:20;;;;;;;4.18;2.22;;;20.30;47.70;;;;;;4882513;29;20100;-58
2022/03/21 06:02:46;;;;;;;4.25;2.80;;;20.30;47.70;;;;;;4881914;29;20048;-59
2022/03/21 06:05:11;;;;;;;4.82;2.90;;;20.30;47.70;;;;;;4882542;29;20389;-59
2022/03/21 06:07:37;;;;;;;4.45;2.67;;;20.30;47.70;;;;;;4882639;29;20652;-59
2022/03/21 06:10:03;;;;;;;6.18;2.80;;;20.40;47.70;;;;;;4881664;29;20456;-58
2022/03/21 06:12:30;;;;;;;4.38;2.67;;;20.40;47.70;;;;;;4881926;29;20063;-59
2022/03/21 06:14:56;;;;;;;4.13;2.67;;;20.40;47.70;;;;;;4883203;29;20052;-59
2022/03/21 06:17:21;;;;;;;4.80;2.80;;;20.40;47.70;;;;;;4881642;29;20128;-59
2022/03/21 06:19:47;;;;;;;4.72;2.70;;;20.40;47.70;;;;;;4882458;29;20100;-59
2022/03/21 06:22:13;;;;;;;5.72;2.85;;;20.40;47.60;;;;;;4882136;29;20045;-59
2022/03/21 06:24:39;;;;;;;4.15;2.80;;;20.40;47.60;;;;;;4881845;29;20100;-59
2022/03/21 06:27:04;;;;;;;3.78;2.47;;;20.40;47.60;;;;;;4882276;29;20608;-59
2022/03/21 06:29:30;;;;;;;4.47;2.60;;;20.40;47.60;;;;;;4882048;29;20064;-59
2022/03/21 06:31:55;;;;;;;3.63;2.38;;;20.40;47.60;;;;;;4881328;29;20045;-59
2022/03/21 06:34:21;;;;;;;4.13;2.67;;;20.40;47.60;;;;;;4881617;29;20045;-59
2022/03/21 06:36:46;;;;;;;4.00;2.58;;;20.40;47.60;;;;;;4881806;29;20128;-59
2022/03/21 06:39:12;;;;;;;3.92;2.40;;;20.40;47.60;;;;;;4880821;29;20052;-59
2022/03/21 06:41:38;;;;;;;4.43;2.72;;;20.40;47.50;;;;;;4881663;29;20041;-59
2022/03/21 06:44:04;;;;;;;4.88;2.47;;;20.40;47.50;;;;;;4882037;29;20104;-59
2022/03/21 06:46:29;;;;;;;3.40;2.50;;;20.50;47.50;;;;;;4880673;29;20532;-59
2022/03/21 06:48:55;;;;;;;4.53;2.60;;;20.50;47.50;;;;;;4881786;29;20041;-59
2022/03/21 06:51:20;;;;;;;4.07;2.60;;;20.40;47.50;;;;;;4880504;29;20116;-59
2022/03/21 06:53:46;;;;;;;4.00;2.42;;;20.50;47.50;;;;;;4881786;29;20064;-59
2022/03/21 06:56:11;;;;;;;5.60;3.00;;;20.50;47.50;;;;;;4881330;29;20041;-58
2022/03/21 06:58:37;;;;;;;4.82;2.53;;;20.50;47.50;;;;;;4880823;29;20497;-58
2022/03/21 07:01:02;;;;;;;11.05;5.63;;;20.50;47.60;;;;;;4881713;29;20136;-59
2022/03/21 07:03:28;;;;;;;6.88;3.50;;;20.50;47.60;;;;;;4881307;29;20045;-59
2022/03/21 07:05:54;;;;;;;6.93;3.28;;;20.60;47.70;;;;;;4880142;29;20541;-59
2022/03/21 07:08:20;;;;;;;4.78;3.03;;;20.60;47.70;;;;;;4880602;29;20076;-59
2022/03/21 07:10:45;;;;;;;6.50;3.42;;;20.60;47.80;;;;;;4881177;29;20076;-59
2022/03/21 07:13:11;;;;;;;7.95;3.67;;;20.60;47.80;;;;;;4880291;29;20061;-59
2022/03/21 07:15:37;;;;;;;8.65;4.00;;;20.70;47.90;;;;;;4881353;29;20044;-59
2022/03/21 07:18:03;;;;;;;7.80;4.00;;;20.60;47.90;;;;;;4880876;29;20052;-59
2022/03/21 07:20:29;;;;;;;9.63;4.82;;;20.70;48.00;;;;;;4880667;29;20080;-60
2022/03/21 07:22:55;;;;;;;8.40;4.38;;;20.70;48.00;;;;;;4881008;29;20085;-59
2022/03/21 07:25:21;;;;;;;9.73;4.68;;;20.70;48.00;;;;;;4880389;29;20088;-59
2022/03/21 07:27:46;;;;;;;10.68;4.72;;;20.70;48.10;;;;;;4879214;29;20457;-59
2022/03/21 07:30:12;;;;;;;9.43;4.65;;;20.70;48.30;;;;;;4880731;29;20104;-59
2022/03/21 07:32:39;;;;;;;13.85;5.43;;;20.70;48.50;;;;;;4880814;29;20076;-59
2022/03/21 07:35:05;;;;;;;9.13;4.57;;;20.80;48.70;;;;;;4880144;29;20041;-59
2022/03/21 07:37:41;;;;;;;11.38;5.68;;;20.80;48.80;;;;;;4880489;29;20505;-59
2022/03/21 07:40:10;;;;;;;11.68;4.68;;;20.80;49.00;;;;;;4880722;29;20060;-59
2022/03/21 07:42:37;;;;;;;11.60;5.32;;;20.80;49.00;;;;;;4879804;29;20049;-59
2022/03/21 07:47:47;;;;;;;9.98;4.97;;;20.90;49.20;;;;;;4880094;29;20052;-59
2022/03/21 07:50:12;;;;;;;6.38;4.28;;;20.90;49.20;;;;;;4880445;29;20382;-59
2022/03/21 07:52:38;;;;;;;11.82;5.07;;;20.90;49.30;;;;;;4880739;29;20108;-59
2022/03/21 07:55:04;;;;;;;9.07;4.50;;;20.90;49.30;;;;;;4879920;29;20052;-59
2022/03/21 07:57:29;;;;;;;9.82;4.80;;;21.00;49.40;;;;;;4880111;29;20496;-59
2022/03/21 07:59:55;;;;;;;9.98;5.15;;;21.00;49.40;;;;;;4880467;29;20080;-59
2022/03/21 08:02:21;;;;;;;7.68;4.30;;;21.00;49.50;;;;;;4879263;29;20478;-59
2022/03/21 08:04:47;;;;;;;10.73;4.60;;;21.00;49.50;;;;;;4880147;29;20092;-59
2022/03/21 08:07:16;;;;;;;8.60;4.63;;;21.00;49.50;;;;;;4880200;29;20092;-58
2022/03/21 08:09:42;;;;;;;9.63;4.63;;;21.00;49.50;;;;;;4879366;29;20049;-59
2022/03/21 08:12:08;;;;;;;9.45;4.97;;;21.10;49.50;;;;;;4880115;29;20150;-59
2022/03/21 08:14:34;;;;;;;9.20;4.65;;;21.10;49.60;;;;;;4879936;29;20477;-58
2022/03/21 08:17:00;;;;;;;9.48;5.00;;;21.10;49.60;;;;;;4877698;29;20489;-60
2022/03/21 08:19:25;;;;;;;10.18;4.18;;;21.20;49.60;;;;;;4879263;29;20053;-59
2022/03/21 08:21:54;;;;;;;10.15;4.70;;;21.10;49.50;;;;;;4880331;29;20049;-59
2022/03/21 08:24:21;;;;;;;9.30;4.75;;;21.20;49.60;;;;;;4876359;29;20067;-58
2022/03/21 08:26:47;;;;;;;9.18;4.10;;;21.20;49.60;;;;;;4879895;29;20044;-58
2022/03/21 08:29:12;;;;;;;7.68;4.60;;;21.20;49.60;;;;;;4878360;29;20093;-58
2022/03/21 08:31:38;;;;;;;7.65;4.10;;;21.20;49.60;;;;;;4879025;29;20072;-59
2022/03/21 08:34:04;;;;;;;8.43;4.05;;;21.20;49.70;;;;;;4879881;29;20049;-59
2022/03/21 08:36:30;;;;;;;7.85;4.32;;;21.30;49.60;;;;;;4879692;29;20049;-58
2022/03/21 08:38:56;;;;;;;8.52;3.83;;;21.30;49.50;;;;;;4878897;29;20052;-58
2022/03/21 08:41:21;;;;;;;9.10;4.15;;;21.30;49.50;;;;;;4879544;29;20037;-58
2022/03/21 08:43:47;;;;;;;8.50;4.82;;;21.30;49.50;;;;;;4879048;29;20056;-58
2022/03/21 08:46:13;;;;;;;7.68;4.00;;;21.30;49.60;;;;;;4879557;29;20072;-58
2022/03/21 08:51:23;;;;;;;7.45;4.45;;;21.30;49.70;;;;;;4878806;29;20053;-58
2022/03/21 08:53:49;;;;;;;7.82;4.35;;;21.30;49.70;;;;;;4879643;29;20053;-58
2022/03/21 08:56:14;;;;;;;7.22;3.90;;;21.30;49.70;;;;;;4879346;29;20088;-58
2022/03/21 08:58:40;;;;;;;9.55;3.95;;;21.30;49.80;;;;;;4878500;29;20081;-58
2022/03/21 09:01:05;;;;;;;6.28;3.75;;;21.30;49.80;;;;;;4879439;29;20132;-58
2022/03/21 09:03:31;;;;;;;7.93;3.70;;;21.40;49.80;;;;;;4878536;29;20076;-58
2022/03/21 09:05:56;;;;;;;6.82;3.60;;;21.40;49.80;;;;;;4878108;29;20537;-58
2022/03/21 09:08:22;;;;;;;7.20;4.05;;;21.40;49.80;;;;;;4879017;29;20518;-59
2022/03/21 09:10:48;;;;;;;7.05;3.80;;;21.40;49.80;;;;;;4879616;29;20563;-58
2022/03/21 09:13:14;;;;;;;8.15;3.97;;;21.40;49.80;;;;;;4877650;29;20465;-58
2022/03/21 09:15:43;;;;;;;8.05;4.13;;;21.40;49.80;;;;;;4878434;29;20065;-58
2022/03/21 09:18:09;;;;;;;9.70;4.40;;;21.40;49.80;;;;;;4878052;29;20085;-59
2022/03/21 09:20:34;;;;;;;6.68;3.75;;;21.40;49.80;;;;;;4878391;29;20045;-58
2022/03/21 09:23:00;;;;;;;7.20;4.15;;;21.40;49.80;;;;;;4879141;29;20041;-59
2022/03/21 09:25:26;;;;;;;8.60;3.90;;;21.40;49.80;;;;;;4879056;29;20081;-58
2022/03/21 09:27:51;;;;;;;6.15;3.40;;;21.40;49.80;;;;;;4878450;29;20041;-58
2022/03/21 09:30:17;;;;;;;8.93;3.65;;;21.40;49.80;;;;;;4878680;29;20088;-59
2022/03/21 09:32:42;;;;;;;8.77;4.20;;;21.40;49.80;;;;;;4879277;29;20378;-59
2022/03/21 09:35:08;;;;;;;6.47;4.05;;;21.40;49.80;;;;;;4878324;29;20057;-58
2022/03/21 09:37:33;;;;;;;6.97;4.03;;;21.40;49.80;;;;;;4878472;29;20096;-59
2022/03/21 09:39:59;;;;;;;7.63;3.70;;;21.40;49.80;;;;;;4877165;29;20422;-59
2022/03/21 09:42:25;;;;;;;6.68;3.63;;;21.40;49.80;;;;;;4877972;29;20047;-59
2022/03/21 09:44:54;;;;;;;6.25;3.63;;;21.40;49.70;;;;;;4878330;29;20045;-59
2022/03/21 09:50:09;;;;;;;6.63;3.58;;;21.40;49.60;;;;;;4879011;29;20501;-59
2022/03/21 09:52:35;;;;;;;8.43;4.13;;;21.50;49.50;;;;;;4878724;29;20049;-59
2022/03/21 09:55:01;;;;;;;8.43;3.72;;;21.40;49.40;;;;;;4879121;29;20045;-59
2022/03/21 09:57:26;;;;;;;6.93;3.58;;;21.40;49.40;;;;;;4878918;29;20146;-59
2022/03/21 09:59:52;;;;;;;5.78;3.40;;;21.40;49.40;;;;;;4877535;29;20131;-59
2022/03/21 10:02:18;;;;;;;6.82;3.92;;;21.40;49.40;;;;;;4876145;29;20054;-59
2022/03/21 10:04:44;;;;;;;7.75;3.97;;;21.40;49.40;;;;;;4876465;29;20049;-59
2022/03/21 10:07:10;;;;;;;7.68;4.43;;;21.40;49.60;;;;;;4876900;29;20048;-59
2022/03/21 10:09:36;;;;;;;8.35;4.85;;;21.40;49.80;;;;;;4874750;29;20053;-60
2022/03/21 10:12:03;;;;;;;10.25;4.28;;;21.40;49.90;;;;;;4876089;29;20136;-59
2022/03/21 10:14:33;;;;;;;7.97;4.00;;;21.40;49.90;;;;;;4875720;29;20085;-59
2022/03/21 10:17:03;;;;;;;13.02;4.75;;;21.40;50.00;;;;;;4875210;29;20045;-59
2022/03/21 10:19:45;;;;;;;10.82;4.65;;;21.40;50.00;;;;;;4876354;29;20148;-59
2022/03/21 10:22:16;;;;;;;10.60;4.60;;;21.50;50.10;;;;;;4875539;29;20100;-59
2022/03/21 10:24:43;;;;;;;10.63;4.75;;;21.40;50.10;;;;;;4878453;29;20129;-59
2022/03/21 10:27:29;;;;;;;8.90;4.47;;;21.50;50.10;;;;;;4878360;29;20037;-58
2022/03/21 10:30:00;;;;;;;12.90;5.18;;;21.50;50.10;;;;;;4878188;29;20048;-59
2022/03/21 10:32:34;;;;;;;10.32;4.82;;;21.50;50.00;;;;;;4878349;29;20060;-59
2022/03/21 10:35:04;;;;;;;9.00;4.22;;;21.50;50.10;;;;;;4888680;29;20143;-58
2022/03/21 10:37:44;;;;;;;7.28;4.82;;;21.50;50.10;;;;;;4896361;29;20470;-59
2022/03/21 10:40:27;;;;;;;8.88;4.72;;;21.50;50.10;;;;;;4897619;29;20108;-59
2022/03/21 10:42:55;;;;;;;8.90;4.65;;;21.50;50.00;;;;;;4900800;29;20049;-59
2022/03/21 10:45:22;;;;;;;11.07;5.07;;;21.50;50.00;;;;;;4899458;29;20037;-59
2022/03/21 10:47:52;;;;;;;7.22;4.47;;;21.50;50.00;;;;;;4900816;29;20055;-59
2022/03/21 10:50:27;;;;;;;8.63;4.78;;;21.50;50.00;;;;;;4900156;29;20069;-59
2022/03/21 10:53:10;;;;;;;8.30;4.65;;;21.50;49.80;;;;;;4900637;29;20040;-58
2022/03/21 10:55:36;;;;;;;7.35;4.38;;;21.50;49.70;;;;;;4900556;29;20056;-59
2022/03/21 10:58:02;;;;;;;9.32;5.07;;;21.50;49.70;;;;;;4899670;29;20111;-59
2022/03/21 11:00:31;;;;;;;8.18;4.70;;;21.50;49.80;;;;;;4899885;29;20041;-59
2022/03/21 11:03:15;;;;;;;8.68;4.78;;;21.50;49.80;;;;;;4878238;29;20065;-59
2022/03/21 11:05:45;;;;;;;9.45;4.45;;;21.50;49.80;;;;;;4878251;29;20080;-59
2022/03/21 11:08:15;;;;;;;9.35;4.13;;;21.50;49.80;;;;;;4881718;29;20120;-59
2022/03/21 11:10:40;;;;;;;10.02;4.95;;;21.50;49.70;;;;;;4881620;29;20068;-59
2022/03/21 11:13:07;;;;;;;9.38;4.82;;;21.50;49.60;;;;;;4880436;29;20409;-58
2022/03/21 11:15:34;;;;;;;10.00;4.47;;;21.50;49.50;;;;;;4881180;29;20132;-58
2022/03/21 11:18:00;;;;;;;10.52;4.63;;;21.50;49.60;;;;;;4881371;29;20033;-59
2022/03/21 11:20:26;;;;;;;8.85;4.75;;;21.50;49.50;;;;;;4880219;29;20408;-59
2022/03/21 11:22:53;;;;;;;8.45;4.40;;;21.50;49.50;;;;;;4881013;29;20077;-58
2022/03/21 11:25:18;;;;;;;7.20;3.95;;;21.50;49.60;;;;;;4881194;29;20045;-59
2022/03/21 11:27:57;;;;;;;6.60;4.18;;;21.50;49.60;;;;;;4880386;29;20056;-59
2022/03/21 11:30:52;;;;;;;8.15;3.70;;;21.50;49.60;;;;;;4879765;29;20083;-59
2022/03/21 11:33:42;;;;;;;7.55;4.43;;;21.50;49.60;;;;;;4878974;29;20068;-58
2022/03/21 11:36:09;;;;;;;8.25;4.63;;;21.50;49.50;;;;;;4881197;29;20128;-58
2022/03/21 11:38:45;;;;;;;9.77;4.40;;;21.50;49.50;;;;;;4880942;29;20544;-59
2022/03/21 11:41:16;;;;;;;8.00;4.28;;;21.50;49.60;;;;;;4880183;29;20053;-58
2022/03/21 11:43:43;;;;;;;7.60;4.32;;;21.50;49.50;;;;;;4879491;29;20401;-59
2022/03/21 11:46:27;;;;;;;8.98;4.35;;;21.50;49.60;;;;;;4880861;29;20056;-58
2022/03/21 11:48:59;;;;;;;8.25;3.95;;;21.50;49.60;;;;;;4880203;29;20525;-59
2022/03/21 11:51:26;;;;;;;7.28;4.45;;;21.50;49.60;;;;;;4880719;29;20048;-59
2022/03/21 11:53:54;;;;;;;7.55;4.20;;;21.50;49.50;;;;;;4879318;29;20088;-59
2022/03/21 11:56:45;;;;;;;8.20;4.25;;;21.50;49.50;;;;;;4880473;29;20045;-58
2022/03/21 11:59:32;;;;;;;6.60;3.80;;;21.60;49.60;;;;;;4880558;29;20088;-58
2022/03/21 12:01:59;;;;;;;9.70;4.67;;;21.50;49.50;;;;;;4879907;29;20117;-58
2022/03/21 12:04:24;;;;;;;9.65;4.90;;;21.50;49.50;;;;;;4879091;29;20425;-58
2022/03/21 12:06:50;;;;;;;9.20;3.97;;;21.50;49.50;;;;;;4880384;29;20073;-58
2022/03/21 12:09:16;;;;;;;8.05;4.35;;;21.50;49.50;;;;;;4879524;29;20045;-58
2022/03/21 12:11:42;;;;;;;8.88;4.72;;;21.60;49.70;;;;;;4880257;29;20456;-57
2022/03/21 12:14:23;;;;;;;9.50;4.85;;;21.60;49.60;;;;;;4880180;29;20061;-58
2022/03/21 12:17:11;;;;;;;8.30;4.68;;;21.60;49.70;;;;;;4879369;29;20390;-58
2022/03/21 12:22:30;;;;;;;9.32;4.82;;;21.60;49.80;;;;;;4879220;29;20049;-57
2022/03/21 12:25:02;;;;;;;7.30;4.22;;;21.60;50.00;;;;;;4878615;29;20045;-57
2022/03/21 12:27:32;;;;;;;8.63;5.00;;;21.60;50.00;;;;;;4877584;29;20048;-57
2022/03/21 12:30:23;;;;;;;7.45;4.50;;;21.60;49.90;;;;;;4897846;29;20048;-58
2022/03/21 12:32:56;;;;;;;7.43;4.85;;;21.60;49.90;;;;;;4898686;29;20401;-56
2022/03/21 12:35:35;;;;;;;7.55;4.75;;;21.60;50.00;;;;;;4898151;29;20449;-56
2022/03/21 12:38:04;;;;;;;10.02;4.70;;;21.60;49.90;;;;;;4891629;29;20124;-57
2022/03/21 12:40:30;;;;;;;7.28;4.45;;;21.60;49.80;;;;;;4878917;29;20049;-57
2022/03/21 12:42:59;;;;;;;9.88;4.88;;;21.60;49.90;;;;;;4879223;29;20129;-57
2022/03/21 12:45:25;;;;;;;8.95;4.55;;;21.70;49.90;;;;;;4879678;29;20057;-57
2022/03/21 12:47:50;;;;;;;8.13;4.75;;;21.60;50.10;;;;;;4879779;29;20041;-57
2022/03/21 12:50:21;;;;;;;10.35;5.38;;;21.70;49.90;;;;;;4878484;29;20049;-57
2022/03/21 12:52:54;;;;;;;7.05;4.80;;;21.70;49.70;;;;;;4879789;29;20093;-57
2022/03/21 12:55:20;;;;;;;9.40;5.15;;;21.70;49.50;;;;;;4879468;29;20045;-57
2022/03/21 12:58:02;;;;;;;7.40;5.13;;;21.70;49.60;;;;;;4879068;29;20123;-57
2022/03/21 13:00:34;;;;;;;7.63;4.82;;;21.70;49.60;;;;;;4861766;29;20049;-56
2022/03/21 13:03:12;;;;;;;8.73;4.88;;;21.70;49.50;;;;;;4884537;29;20048;-57
2022/03/21 13:11:24;;;;;;;8.35;4.65;;;21.70;49.50;;;;;;4877955;29;20060;-56
2022/03/21 13:13:53;;;;;;;9.55;5.47;;;21.70;49.40;;;;;;4882555;29;20063;-56
2022/03/21 13:16:19;;;;;;;;;;;21.80;49.30;;;;;;4897751;29;20052;-56
2022/03/21 13:18:44;;;;;;;8.07;5.05;;;21.80;49.10;;;;;;4877038;29;19923;-57
2022/03/21 13:21:10;;;;;;;10.15;5.20;;;21.80;49.10;;;;;;4895186;29;20048;-57